![]() |
EMODnet Physics ERDDAP
Easier access to scientific data |
log in|
Brought to you by EMODnet Physics |
| Dataset Title: | NDBC - Collection of dew point temperature (DEWT) TimeSeries - IN SITU MultiPointTimeSeriesObservation
|
| Institution: | NDBC (Dataset ID: TS_DEWT_NDBC) |
| Information: | Summary
| License
| FGDC
| ISO 19115
| Metadata
| Background
| Subset
| Data Access Form
| Make a graph
|
| Name | Last modified | Size | Description | |
|---|---|---|---|---|
| Parent Directory | - | - | ||
| LOPL1_TS_DEWT_012012.nc | 27-Oct-2024 11:58 | 449453 | ||
| LOPL1_TS_DEWT_012013.nc | 27-Oct-2024 11:58 | 429494 | ||
| LOPL1_TS_DEWT_012014.nc | 27-Oct-2024 11:58 | 429443 | ||
| LOPL1_TS_DEWT_012016.nc | 27-Oct-2024 11:59 | 429466 | ||
| LOPL1_TS_DEWT_012017.nc | 27-Oct-2024 11:59 | 429493 | ||
| LOPL1_TS_DEWT_012018.nc | 27-Oct-2024 11:59 | 429472 | ||
| LOPL1_TS_DEWT_012019.nc | 27-Oct-2024 11:59 | 429489 | ||
| LOPL1_TS_DEWT_012020.nc | 27-Oct-2024 11:59 | 429493 | ||
| LOPL1_TS_DEWT_012021.nc | 27-Oct-2024 11:59 | 1107813 | ||
| LOPL1_TS_DEWT_012023.nc | 27-Oct-2024 11:59 | 1109572 | ||
| LOPL1_TS_DEWT_012024.nc | 27-Oct-2024 11:59 | 995733 | ||
| LOPL1_TS_DEWT_012025.nc | 07-Feb-2025 13:15 | 995553 | ||
| LOPL1_TS_DEWT_012026.nc | 15-Jan-2026 07:11 | 429604 | ||
| LOPL1_TS_DEWT_022012.nc | 27-Oct-2024 11:59 | 427262 | ||
| LOPL1_TS_DEWT_022013.nc | 27-Oct-2024 11:59 | 429585 | ||
| LOPL1_TS_DEWT_022014.nc | 27-Oct-2024 11:59 | 429615 | ||
| LOPL1_TS_DEWT_022015.nc | 27-Oct-2024 11:59 | 429609 | ||
| LOPL1_TS_DEWT_022017.nc | 27-Oct-2024 11:59 | 449529 | ||
| LOPL1_TS_DEWT_022018.nc | 27-Oct-2024 11:59 | 449385 | ||
| LOPL1_TS_DEWT_022019.nc | 27-Oct-2024 11:59 | 428858 | ||
| LOPL1_TS_DEWT_022020.nc | 27-Oct-2024 11:59 | 429597 | ||
| LOPL1_TS_DEWT_022021.nc | 27-Oct-2024 11:59 | 429609 | ||
| LOPL1_TS_DEWT_022023.nc | 27-Oct-2024 12:00 | 429622 | ||
| LOPL1_TS_DEWT_022024.nc | 16-Sep-2024 16:51 | 429612 | ||
| LOPL1_TS_DEWT_022025.nc | 01-Mar-2025 08:27 | 429615 | ||
| LOPL1_TS_DEWT_032012.nc | 27-Oct-2024 12:00 | 429609 | ||
| LOPL1_TS_DEWT_032013.nc | 27-Oct-2024 12:00 | 429608 | ||
| LOPL1_TS_DEWT_032014.nc | 27-Oct-2024 12:00 | 429616 | ||
| LOPL1_TS_DEWT_032015.nc | 27-Oct-2024 12:00 | 429616 | ||
| LOPL1_TS_DEWT_032016.nc | 27-Oct-2024 12:00 | 429834 | ||
| LOPL1_TS_DEWT_032017.nc | 27-Oct-2024 12:00 | 429832 | ||
| LOPL1_TS_DEWT_032018.nc | 27-Oct-2024 12:00 | 429832 | ||
| LOPL1_TS_DEWT_032019.nc | 27-Oct-2024 12:00 | 429818 | ||
| LOPL1_TS_DEWT_032020.nc | 27-Oct-2024 12:00 | 438173 | ||
| LOPL1_TS_DEWT_032021.nc | 27-Oct-2024 12:00 | 429829 | ||
| LOPL1_TS_DEWT_032023.nc | 27-Oct-2024 12:00 | 424795 | ||
| LOPL1_TS_DEWT_032025.nc | 02-Apr-2025 06:26 | 450687 | ||
| LOPL1_TS_DEWT_042012.nc | 27-Oct-2024 12:00 | 429831 | ||
| LOPL1_TS_DEWT_042013.nc | 27-Oct-2024 12:00 | 429258 | ||
| LOPL1_TS_DEWT_042014.nc | 27-Oct-2024 12:00 | 429835 | ||
| LOPL1_TS_DEWT_042015.nc | 27-Oct-2024 12:00 | 424707 | ||
| LOPL1_TS_DEWT_042016.nc | 27-Oct-2024 12:00 | 429719 | ||
| LOPL1_TS_DEWT_042017.nc | 27-Oct-2024 12:00 | 429479 | ||
| LOPL1_TS_DEWT_042018.nc | 27-Oct-2024 12:01 | 429837 | ||
| LOPL1_TS_DEWT_042019.nc | 27-Oct-2024 12:01 | 1256324 | ||
| LOPL1_TS_DEWT_042020.nc | 27-Oct-2024 12:01 | 1236998 | ||
| LOPL1_TS_DEWT_042021.nc | 27-Oct-2024 12:01 | 1144147 | ||
| LOPL1_TS_DEWT_042023.nc | 27-Oct-2024 12:01 | 1245993 | ||
| LOPL1_TS_DEWT_042025.nc | 01-May-2025 06:55 | 429265 | ||
| LOPL1_TS_DEWT_052012.nc | 27-Oct-2024 12:01 | 429269 | ||
| LOPL1_TS_DEWT_052013.nc | 27-Oct-2024 12:01 | 429273 | ||
| LOPL1_TS_DEWT_052014.nc | 27-Oct-2024 12:01 | 429285 | ||
| LOPL1_TS_DEWT_052016.nc | 27-Oct-2024 12:01 | 429287 | ||
| LOPL1_TS_DEWT_052017.nc | 27-Oct-2024 12:01 | 449482 | ||
| LOPL1_TS_DEWT_052018.nc | 27-Oct-2024 12:01 | 448645 | ||
| LOPL1_TS_DEWT_052019.nc | 27-Oct-2024 12:01 | 449158 | ||
| LOPL1_TS_DEWT_052020.nc | 27-Oct-2024 12:01 | 425085 | ||
| LOPL1_TS_DEWT_052021.nc | 27-Oct-2024 12:01 | 420495 | ||
| LOPL1_TS_DEWT_052023.nc | 27-Oct-2024 12:01 | 429293 | ||
| LOPL1_TS_DEWT_062012.nc | 27-Oct-2024 12:01 | 429288 | ||
| LOPL1_TS_DEWT_062013.nc | 27-Oct-2024 12:01 | 429295 | ||
| LOPL1_TS_DEWT_062014.nc | 27-Oct-2024 12:01 | 429283 | ||
| LOPL1_TS_DEWT_062015.nc | 27-Oct-2024 12:02 | 429291 | ||
| LOPL1_TS_DEWT_062016.nc | 27-Oct-2024 12:02 | 429291 | ||
| LOPL1_TS_DEWT_062017.nc | 27-Oct-2024 12:02 | 429278 | ||
| LOPL1_TS_DEWT_062018.nc | 27-Oct-2024 12:02 | 429286 | ||
| LOPL1_TS_DEWT_062019.nc | 27-Oct-2024 12:02 | 429488 | ||
| LOPL1_TS_DEWT_062020.nc | 27-Oct-2024 12:02 | 429454 | ||
| LOPL1_TS_DEWT_062021.nc | 27-Oct-2024 12:02 | 429491 | ||
| LOPL1_TS_DEWT_062022.nc | 27-Oct-2024 12:02 | 429473 | ||
| LOPL1_TS_DEWT_062023.nc | 27-Oct-2024 12:02 | 429494 | ||
| LOPL1_TS_DEWT_062025.nc | 17-Jun-2025 06:03 | 429491 | ||
| LOPL1_TS_DEWT_072012.nc | 27-Oct-2024 12:02 | 450050 | ||
| LOPL1_TS_DEWT_072013.nc | 27-Oct-2024 12:02 | 448732 | ||
| LOPL1_TS_DEWT_072014.nc | 27-Oct-2024 12:02 | 429490 | ||
| LOPL1_TS_DEWT_072015.nc | 27-Oct-2024 12:02 | 429286 | ||
| LOPL1_TS_DEWT_072016.nc | 27-Oct-2024 12:02 | 429474 | ||
| LOPL1_TS_DEWT_072017.nc | 27-Oct-2024 12:02 | 429479 | ||
| LOPL1_TS_DEWT_072018.nc | 27-Oct-2024 12:02 | 429591 | ||
| LOPL1_TS_DEWT_072019.nc | 27-Oct-2024 12:03 | 429494 | ||
| LOPL1_TS_DEWT_072020.nc | 27-Oct-2024 12:03 | 1016730 | ||
| LOPL1_TS_DEWT_072021.nc | 27-Oct-2024 12:03 | 1021206 | ||
| LOPL1_TS_DEWT_072022.nc | 27-Oct-2024 12:03 | 995665 | ||
| LOPL1_TS_DEWT_072023.nc | 27-Oct-2024 12:03 | 1106911 | ||
| LOPL1_TS_DEWT_072025.nc | 16-Aug-2025 06:03 | 429599 | ||
| LOPL1_TS_DEWT_082011.nc | 27-Oct-2024 12:03 | 429602 | ||
| LOPL1_TS_DEWT_082012.nc | 27-Oct-2024 12:03 | 429596 | ||
| LOPL1_TS_DEWT_082013.nc | 27-Oct-2024 12:03 | 429608 | ||
| LOPL1_TS_DEWT_082014.nc | 27-Oct-2024 12:03 | 429614 | ||
| LOPL1_TS_DEWT_082015.nc | 27-Oct-2024 12:03 | 449660 | ||
| LOPL1_TS_DEWT_082017.nc | 27-Oct-2024 12:03 | 434573 | ||
| LOPL1_TS_DEWT_082018.nc | 27-Oct-2024 12:03 | 429617 | ||
| LOPL1_TS_DEWT_082019.nc | 27-Oct-2024 12:03 | 429608 | ||
| LOPL1_TS_DEWT_082020.nc | 27-Oct-2024 12:03 | 429609 | ||
| LOPL1_TS_DEWT_082021.nc | 27-Oct-2024 12:03 | 429617 | ||
| LOPL1_TS_DEWT_082022.nc | 27-Oct-2024 12:03 | 429610 | ||
| LOPL1_TS_DEWT_082023.nc | 27-Oct-2024 12:03 | 425664 | ||
| LOPL1_TS_DEWT_082025.nc | 01-Sep-2025 06:35 | 429621 | ||
| LOPL1_TS_DEWT_092011.nc | 27-Oct-2024 12:03 | 429610 | ||
| LOPL1_TS_DEWT_092012.nc | 27-Oct-2024 12:04 | 429615 | ||
| LOPL1_TS_DEWT_092013.nc | 27-Oct-2024 12:04 | 429621 | ||
| LOPL1_TS_DEWT_092014.nc | 27-Oct-2024 12:04 | 429608 | ||
| LOPL1_TS_DEWT_092015.nc | 27-Oct-2024 12:04 | 429837 | ||
| LOPL1_TS_DEWT_092016.nc | 27-Oct-2024 12:04 | 429833 | ||
| LOPL1_TS_DEWT_092017.nc | 27-Oct-2024 12:04 | 429830 | ||
| LOPL1_TS_DEWT_092018.nc | 27-Oct-2024 12:04 | 429837 | ||
| LOPL1_TS_DEWT_092019.nc | 27-Oct-2024 12:04 | 429828 | ||
| LOPL1_TS_DEWT_092020.nc | 27-Oct-2024 12:04 | 429833 | ||
| LOPL1_TS_DEWT_092022.nc | 27-Oct-2024 12:04 | 449686 | ||
| LOPL1_TS_DEWT_092023.nc | 27-Oct-2024 12:04 | 450740 | ||
| LOPL1_TS_DEWT_092025.nc | 01-Oct-2025 08:38 | 429837 | ||
| LOPL1_TS_DEWT_102011.nc | 27-Oct-2024 12:04 | 429833 | ||
| LOPL1_TS_DEWT_102012.nc | 27-Oct-2024 12:04 | 429835 | ||
| LOPL1_TS_DEWT_102013.nc | 27-Oct-2024 12:04 | 429810 | ||
| LOPL1_TS_DEWT_102014.nc | 27-Oct-2024 12:04 | 429814 | ||
| LOPL1_TS_DEWT_102015.nc | 27-Oct-2024 12:04 | 429833 | ||
| LOPL1_TS_DEWT_102016.nc | 27-Oct-2024 12:05 | 1107568 | ||
| LOPL1_TS_DEWT_102017.nc | 27-Oct-2024 12:05 | 1144200 | ||
| LOPL1_TS_DEWT_102018.nc | 27-Oct-2024 12:05 | 1144074 | ||
| LOPL1_TS_DEWT_102019.nc | 27-Oct-2024 12:05 | 1222629 | ||
| LOPL1_TS_DEWT_102020.nc | 27-Oct-2024 12:05 | 429602 | ||
| LOPL1_TS_DEWT_102022.nc | 27-Oct-2024 12:05 | 429597 | ||
| LOPL1_TS_DEWT_102023.nc | 27-Oct-2024 12:05 | 429600 | ||
| LOPL1_TS_DEWT_102024.nc | 12-Jan-2025 22:44 | 429618 | ||
| LOPL1_TS_DEWT_102025.nc | 01-Nov-2025 08:09 | 429610 | ||
| LOPL1_TS_DEWT_112011.nc | 27-Oct-2024 12:05 | 427165 | ||
| LOPL1_TS_DEWT_112012.nc | 27-Oct-2024 12:05 | 429615 | ||
| LOPL1_TS_DEWT_112013.nc | 27-Oct-2024 12:05 | 429587 | ||
| LOPL1_TS_DEWT_112014.nc | 27-Oct-2024 12:05 | 429602 | ||
| LOPL1_TS_DEWT_112015.nc | 27-Oct-2024 12:05 | 429619 | ||
| LOPL1_TS_DEWT_112016.nc | 27-Oct-2024 12:05 | 429608 | ||
| LOPL1_TS_DEWT_112017.nc | 27-Oct-2024 12:05 | 429609 | ||
| LOPL1_TS_DEWT_112018.nc | 27-Oct-2024 12:05 | 429616 | ||
| LOPL1_TS_DEWT_112019.nc | 27-Oct-2024 12:05 | 424678 | ||
| LOPL1_TS_DEWT_112020.nc | 27-Oct-2024 12:05 | 424672 | ||
| LOPL1_TS_DEWT_112022.nc | 27-Oct-2024 12:05 | 429614 | ||
| LOPL1_TS_DEWT_112023.nc | 27-Oct-2024 12:05 | 429611 | ||
| LOPL1_TS_DEWT_112024.nc | 17-Jan-2025 19:18 | 429616 | ||
| LOPL1_TS_DEWT_112025.nc | 01-Dec-2025 07:01 | 429620 | ||
| LOPL1_TS_DEWT_122011.nc | 27-Oct-2024 12:06 | 429832 | ||
| LOPL1_TS_DEWT_122012.nc | 27-Oct-2024 12:06 | 429832 | ||
| LOPL1_TS_DEWT_122013.nc | 27-Oct-2024 12:06 | 429804 | ||
| LOPL1_TS_DEWT_122014.nc | 27-Oct-2024 12:06 | 429783 | ||
| LOPL1_TS_DEWT_122015.nc | 27-Oct-2024 12:06 | 429833 | ||
| LOPL1_TS_DEWT_122016.nc | 27-Oct-2024 12:06 | 429834 | ||
| LOPL1_TS_DEWT_122017.nc | 27-Oct-2024 12:06 | 450574 | ||
| LOPL1_TS_DEWT_122018.nc | 27-Oct-2024 12:06 | 450038 | ||
| LOPL1_TS_DEWT_122019.nc | 27-Oct-2024 12:06 | 429830 | ||
| LOPL1_TS_DEWT_122020.nc | 27-Oct-2024 12:06 | 429814 | ||
| LOPL1_TS_DEWT_122022.nc | 27-Oct-2024 12:06 | 429837 | ||
| LOPL1_TS_DEWT_122023.nc | 27-Oct-2024 12:06 | 423202 | ||
| LOPL1_TS_DEWT_122024.nc | 22-Jan-2025 19:30 | 429834 | ||
| LOPL1_TS_DEWT_122025.nc | 01-Jan-2026 07:28 | 429835 | ||